createdAt,value
2022-12-31T00:00:39.548Z,25.87
2022-12-31T00:03:09.294Z,26.43
2022-12-31T00:05:37.586Z,26.27
2022-12-31T00:08:05.068Z,26.83
2022-12-31T00:10:34.239Z,27.73
2022-12-31T00:13:01.429Z,27.53
2022-12-31T00:15:28.906Z,27.17
2022-12-31T00:17:56.110Z,27.97
2022-12-31T00:20:23.257Z,27.43
2022-12-31T00:22:50.354Z,28.40
2022-12-31T00:25:17.475Z,29.50
2022-12-31T00:27:44.620Z,29.37
2022-12-31T00:30:12.708Z,30.93
2022-12-31T00:32:39.893Z,30.57
2022-12-31T00:35:07.820Z,31.93
2022-12-31T00:37:35.074Z,30.40
2022-12-31T00:40:02.207Z,29.77
2022-12-31T00:42:30.129Z,31.07
2022-12-31T00:44:57.205Z,27.47
2022-12-31T00:47:24.891Z,27.57
2022-12-31T00:49:54.720Z,29.03
2022-12-31T00:52:22.043Z,29.93
2022-12-31T00:54:49.104Z,28.17
2022-12-31T00:57:16.249Z,27.83
2022-12-31T00:59:49.385Z,27.87
2022-12-31T01:02:16.570Z,27.20
2022-12-31T01:04:44.658Z,29.47
2022-12-31T01:07:11.879Z,27.20
2022-12-31T01:09:39.051Z,28.57
2022-12-31T01:12:06.444Z,31.87
2022-12-31T01:14:33.951Z,30.33
2022-12-31T01:17:01.039Z,28.90
2022-12-31T01:19:30.096Z,29.93
2022-12-31T01:21:57.779Z,33.00
2022-12-31T01:24:25.101Z,32.40
2022-12-31T01:26:52.613Z,31.60
2022-12-31T01:29:19.983Z,31.27
2022-12-31T01:31:47.204Z,32.43
2022-12-31T01:34:14.270Z,32.97
2022-12-31T01:36:41.603Z,30.30
2022-12-31T01:39:10.735Z,31.37
2022-12-31T01:41:43.234Z,32.57
2022-12-31T01:44:13.170Z,34.50
2022-12-31T01:46:54.227Z,32.93
2022-12-31T01:49:25.286Z,34.60
2022-12-31T01:52:22.192Z,32.07
2022-12-31T01:55:01.703Z,30.37
2022-12-31T01:57:29.578Z,27.37
2022-12-31T01:59:58.502Z,30.53
2022-12-31T02:02:25.675Z,30.30
2022-12-31T02:04:58.303Z,32.10
2022-12-31T02:07:26.067Z,31.60
2022-12-31T02:09:56.383Z,30.30
2022-12-31T02:12:23.854Z,30.80
2022-12-31T02:14:53.807Z,32.00
2022-12-31T02:17:37.835Z,28.30
2022-12-31T02:20:44.705Z,29.87
2022-12-31T02:23:29.845Z,28.40
2022-12-31T02:26:38.350Z,26.90
2022-12-31T02:29:42.617Z,27.87
2022-12-31T02:32:17.636Z,26.10
2022-12-31T02:34:53.329Z,24.63
2022-12-31T02:37:24.203Z,26.45
2022-12-31T02:39:52.139Z,26.40
2022-12-31T02:42:19.307Z,27.10
2022-12-31T02:44:46.720Z,25.87
2022-12-31T02:47:43.828Z,27.80
2022-12-31T02:50:39.414Z,26.77
2022-12-31T02:53:44.270Z,26.07
2022-12-31T02:56:36.341Z,26.27
2022-12-31T02:59:29.163Z,26.43
2022-12-31T03:02:16.269Z,25.13
2022-12-31T03:04:53.865Z,25.07
2022-12-31T03:07:28.376Z,26.50
2022-12-31T03:09:56.074Z,26.20
2022-12-31T03:12:46.747Z,26.27
2022-12-31T03:15:24.214Z,25.07
2022-12-31T03:18:08.072Z,26.70
2022-12-31T03:21:00.684Z,25.70
2022-12-31T03:23:40.544Z,26.80
2022-12-31T03:26:11.483Z,27.20
2022-12-31T03:28:42.882Z,27.57
2022-12-31T03:31:10.209Z,28.87
2022-12-31T03:33:40.716Z,27.90
2022-12-31T03:36:14.224Z,27.03
2022-12-31T03:38:41.980Z,27.60
2022-12-31T03:41:11.749Z,28.73
2022-12-31T03:43:39.036Z,30.67
2022-12-31T03:46:06.461Z,29.03
2022-12-31T03:48:33.709Z,29.60
2022-12-31T03:51:00.781Z,28.07
2022-12-31T03:53:27.976Z,27.63
2022-12-31T03:55:55.458Z,30.73
2022-12-31T03:58:23.081Z,29.90
2022-12-31T04:00:50.549Z,28.90
2022-12-31T04:03:17.904Z,28.50
2022-12-31T04:05:45.041Z,27.63
2022-12-31T04:08:12.153Z,29.60
2022-12-31T04:10:39.379Z,28.57
2022-12-31T04:13:06.557Z,29.43
2022-12-31T04:15:36.530Z,27.27
2022-12-31T04:18:03.810Z,28.20
2022-12-31T04:20:30.969Z,30.27
2022-12-31T04:22:58.035Z,28.63
2022-12-31T04:25:25.158Z,29.03
2022-12-31T04:27:52.385Z,28.87
2022-12-31T04:30:19.759Z,30.17
2022-12-31T04:32:50.117Z,27.93
2022-12-31T04:35:17.311Z,30.87
2022-12-31T04:37:44.544Z,30.10
2022-12-31T04:40:12.066Z,29.70
2022-12-31T04:42:39.539Z,28.23
2022-12-31T04:45:08.070Z,28.43
2022-12-31T04:47:36.664Z,27.47
2022-12-31T04:50:04.796Z,27.63
2022-12-31T04:52:34.603Z,26.63
2022-12-31T04:55:06.341Z,26.30
2022-12-31T04:57:33.696Z,26.60
2022-12-31T05:00:00.750Z,27.67
2022-12-31T05:02:29.667Z,25.80
2022-12-31T05:04:57.071Z,27.70
2022-12-31T05:07:24.213Z,28.00
2022-12-31T05:09:51.297Z,26.60
2022-12-31T05:12:18.686Z,25.93
2022-12-31T05:14:45.869Z,26.87
2022-12-31T05:17:12.913Z,25.47
2022-12-31T05:19:40.063Z,27.90
2022-12-31T05:22:25.606Z,27.70
2022-12-31T05:24:52.775Z,26.98
2022-12-31T05:27:19.980Z,29.17
2022-12-31T05:29:47.333Z,28.63
2022-12-31T05:32:14.418Z,26.83
2022-12-31T05:34:41.536Z,26.80
2022-12-31T05:37:08.618Z,27.40
2022-12-31T05:39:36.281Z,24.87
2022-12-31T05:42:03.614Z,25.53
2022-12-31T05:44:30.833Z,26.37
2022-12-31T05:46:58.047Z,25.77
2022-12-31T05:49:25.287Z,25.27
2022-12-31T05:51:52.410Z,25.23
2022-12-31T05:54:19.583Z,25.07
2022-12-31T05:56:46.670Z,23.00
2022-12-31T05:59:13.735Z,24.33
2022-12-31T06:01:40.913Z,23.47
2022-12-31T06:04:08.053Z,24.07
2022-12-31T06:06:35.214Z,24.13
2022-12-31T06:09:02.679Z,22.83
2022-12-31T06:11:29.991Z,24.87
2022-12-31T06:13:58.400Z,22.33
2022-12-31T06:16:26.793Z,22.07
2022-12-31T06:18:54.395Z,23.93
2022-12-31T06:21:22.047Z,23.80
2022-12-31T06:23:49.639Z,23.23
2022-12-31T06:26:16.889Z,22.57
2022-12-31T06:28:44.028Z,24.43
2022-12-31T06:31:14.533Z,23.57
2022-12-31T06:33:42.390Z,23.13
2022-12-31T06:36:13.841Z,23.30
2022-12-31T06:38:43.430Z,20.90
2022-12-31T06:41:13.705Z,22.27
2022-12-31T06:43:42.270Z,23.10
2022-12-31T06:46:14.455Z,23.33
2022-12-31T06:48:44.682Z,21.87
2022-12-31T06:51:17.437Z,23.23
2022-12-31T06:53:46.814Z,24.43
2022-12-31T06:56:25.257Z,23.43
2022-12-31T06:58:56.452Z,24.20
2022-12-31T07:02:00.573Z,23.40
2022-12-31T07:04:52.077Z,24.23
2022-12-31T07:07:40.759Z,23.50
2022-12-31T07:10:29.690Z,23.07
2022-12-31T07:14:02.229Z,22.57
2022-12-31T07:16:53.648Z,25.80
2022-12-31T07:19:43.771Z,24.20
2022-12-31T07:22:16.470Z,25.07
2022-12-31T07:24:44.792Z,25.60
2022-12-31T07:27:36.270Z,25.93
2022-12-31T07:30:12.022Z,26.07
2022-12-31T07:33:08.462Z,26.10
2022-12-31T07:36:00.079Z,27.40
2022-12-31T07:38:42.266Z,25.47
2022-12-31T07:41:21.366Z,25.10
2022-12-31T07:44:19.997Z,25.97
2022-12-31T07:47:00.246Z,25.83
2022-12-31T07:49:30.063Z,26.47
2022-12-31T07:51:57.712Z,26.33
2022-12-31T07:54:24.909Z,27.27
2022-12-31T07:56:52.491Z,25.47
2022-12-31T07:59:42.597Z,25.37
2022-12-31T08:02:59.885Z,27.53
2022-12-31T08:06:00.306Z,26.20
2022-12-31T08:08:52.438Z,24.73
2022-12-31T08:11:41.321Z,25.63
2022-12-31T08:14:14.822Z,25.10
2022-12-31T08:16:42.939Z,27.27
2022-12-31T08:19:29.873Z,25.87
2022-12-31T08:22:17.535Z,24.53
2022-12-31T08:25:21.094Z,26.63
2022-12-31T08:28:40.008Z,25.93
2022-12-31T08:31:21.213Z,27.10
2022-12-31T08:34:30.395Z,26.47
2022-12-31T08:37:26.641Z,25.70
2022-12-31T08:40:34.841Z,26.25
2022-12-31T08:43:42.851Z,25.37
2022-12-31T08:46:32.370Z,27.60
2022-12-31T08:48:59.983Z,27.40
2022-12-31T08:51:27.918Z,27.00
2022-12-31T08:53:55.720Z,25.75
2022-12-31T08:56:46.014Z,27.93
2022-12-31T09:00:27.873Z,25.17
2022-12-31T09:03:29.999Z,24.83
2022-12-31T09:06:14.960Z,25.93
2022-12-31T09:08:47.295Z,26.77
2022-12-31T09:11:47.437Z,27.23
2022-12-31T09:14:50.600Z,27.43
2022-12-31T09:17:49.816Z,25.73
2022-12-31T09:20:32.510Z,25.27
2022-12-31T09:23:10.319Z,23.15
2022-12-31T09:25:55.885Z,22.50
2022-12-31T09:28:37.290Z,23.98
2022-12-31T09:31:15.626Z,23.50
2022-12-31T09:33:53.542Z,24.70
2022-12-31T09:36:36.510Z,24.05
2022-12-31T09:39:53.079Z,24.15
2022-12-31T09:43:02.809Z,22.90
2022-12-31T09:46:19.975Z,23.75
2022-12-31T09:49:03.491Z,23.70
2022-12-31T09:51:54.906Z,24.45
2022-12-31T09:54:45.820Z,25.60
2022-12-31T09:57:47.821Z,24.20
2022-12-31T10:00:28.633Z,24.38
2022-12-31T10:03:28.400Z,24.10
2022-12-31T10:06:21.654Z,25.35
2022-12-31T10:09:06.899Z,24.50
2022-12-31T10:12:00.489Z,23.55
2022-12-31T10:14:45.368Z,23.52
2022-12-31T10:17:49.239Z,23.63
2022-12-31T10:21:01.930Z,21.60
2022-12-31T10:24:03.862Z,23.73
2022-12-31T10:26:53.381Z,23.58
2022-12-31T10:29:33.647Z,22.33
2022-12-31T10:32:23.719Z,23.65
2022-12-31T10:35:12.000Z,24.38
2022-12-31T10:37:56.896Z,22.40
2022-12-31T10:41:01.314Z,22.85
2022-12-31T10:44:12.529Z,23.77
2022-12-31T10:47:17.205Z,23.38
2022-12-31T10:50:43.116Z,23.30
2022-12-31T10:54:06.828Z,22.25
2022-12-31T10:56:55.567Z,22.92
2022-12-31T10:59:54.205Z,23.75
2022-12-31T11:02:53.118Z,24.58
2022-12-31T11:05:50.891Z,21.25
2022-12-31T11:08:42.512Z,24.60
2022-12-31T11:11:30.996Z,24.67
2022-12-31T11:14:43.254Z,22.58
2022-12-31T11:17:40.613Z,24.40
2022-12-31T11:20:45.003Z,23.50
2022-12-31T11:23:59.389Z,21.98
2022-12-31T11:27:04.482Z,22.75
2022-12-31T11:30:11.531Z,23.55
2022-12-31T11:32:56.361Z,23.10
2022-12-31T11:36:24.471Z,24.23
2022-12-31T11:42:27.079Z,23.95
2022-12-31T11:45:31.425Z,24.70
2022-12-31T11:49:00.499Z,24.20
2022-12-31T11:51:57.786Z,25.00
2022-12-31T11:54:42.058Z,24.27
2022-12-31T11:57:36.112Z,22.42
2022-12-31T12:00:19.292Z,23.23
2022-12-31T12:03:03.483Z,22.13
2022-12-31T12:05:31.635Z,20.25
2022-12-31T12:07:59.012Z,21.92
2022-12-31T12:10:35.571Z,21.77
2022-12-31T12:13:14.773Z,21.80
2022-12-31T12:15:58.200Z,19.83
2022-12-31T12:19:01.008Z,20.30
2022-12-31T12:21:30.037Z,20.13
2022-12-31T12:24:19.270Z,21.17
2022-12-31T12:26:49.014Z,21.15
2022-12-31T12:29:34.398Z,19.88
2022-12-31T12:32:26.840Z,21.13
2022-12-31T12:34:57.194Z,20.20
2022-12-31T12:37:33.119Z,19.77
2022-12-31T12:40:33.344Z,19.38
2022-12-31T12:43:03.638Z,19.20
2022-12-31T12:45:52.208Z,19.25
2022-12-31T12:48:31.426Z,20.52
2022-12-31T12:50:59.988Z,21.15
2022-12-31T12:53:53.635Z,21.05
2022-12-31T12:56:41.853Z,20.10
2022-12-31T12:59:23.672Z,19.48
2022-12-31T13:02:03.203Z,19.55
2022-12-31T13:05:03.807Z,20.23
2022-12-31T13:07:39.647Z,19.05
2022-12-31T13:13:36.937Z,22.60
2022-12-31T13:16:55.631Z,26.20
2022-12-31T13:19:42.034Z,22.40
2022-12-31T13:25:15.587Z,19.02
2022-12-31T13:27:47.652Z,18.35
2022-12-31T13:30:20.617Z,19.38
2022-12-31T13:33:11.770Z,19.08
2022-12-31T13:36:02.867Z,20.35
2022-12-31T13:38:38.646Z,18.90
2022-12-31T13:41:13.959Z,19.88
2022-12-31T13:44:01.064Z,19.60
2022-12-31T13:47:16.605Z,18.55
2022-12-31T13:49:47.778Z,18.67
2022-12-31T13:52:39.006Z,19.63
2022-12-31T13:55:30.861Z,19.17
2022-12-31T13:58:15.487Z,18.73
2022-12-31T14:00:58.251Z,19.13
2022-12-31T14:03:58.578Z,19.48
2022-12-31T14:06:37.542Z,18.67
2022-12-31T14:09:06.713Z,18.83
2022-12-31T14:12:02.210Z,20.85
2022-12-31T14:14:46.545Z,20.20
2022-12-31T14:17:36.537Z,19.77
2022-12-31T14:20:26.758Z,21.05
2022-12-31T14:23:12.135Z,20.85
2022-12-31T14:25:52.995Z,23.02
2022-12-31T14:28:35.183Z,22.35
2022-12-31T14:31:56.109Z,20.98
2022-12-31T14:35:13.729Z,21.33
2022-12-31T14:40:28.547Z,20.10
2022-12-31T14:43:34.492Z,19.90
2022-12-31T14:46:25.478Z,20.33
2022-12-31T14:49:38.965Z,21.42
2022-12-31T14:52:27.592Z,20.05
2022-12-31T14:55:09.451Z,21.33
2022-12-31T14:58:25.363Z,23.02
2022-12-31T15:01:00.224Z,21.63
2022-12-31T15:03:45.679Z,20.88
2022-12-31T15:06:40.408Z,20.75
2022-12-31T15:09:44.704Z,21.38
2022-12-31T15:13:02.253Z,23.63
2022-12-31T15:16:18.121Z,21.30
2022-12-31T15:19:20.172Z,22.48
2022-12-31T15:22:22.690Z,24.60
2022-12-31T15:24:49.931Z,21.13
2022-12-31T15:27:46.229Z,21.00
2022-12-31T15:30:49.666Z,21.25
2022-12-31T15:33:42.027Z,21.45
2022-12-31T15:36:22.302Z,20.40
2022-12-31T15:38:51.535Z,23.48
2022-12-31T15:41:46.125Z,25.70
2022-12-31T15:44:30.103Z,23.52
2022-12-31T15:47:33.489Z,24.75
2022-12-31T15:50:18.964Z,33.95
2022-12-31T15:53:02.771Z,28.27
2022-12-31T15:55:34.072Z,28.20
2022-12-31T15:58:20.545Z,31.95
2022-12-31T16:01:28.347Z,30.83
2022-12-31T16:04:06.794Z,31.23
2022-12-31T16:06:38.759Z,29.52
2022-12-31T16:09:20.896Z,30.15
2022-12-31T16:11:49.175Z,29.40
2022-12-31T16:14:23.895Z,29.80
2022-12-31T16:17:00.928Z,31.00
2022-12-31T16:19:40.888Z,35.25
2022-12-31T16:22:26.186Z,34.00
2022-12-31T16:25:29.653Z,31.37
2022-12-31T16:27:50.895Z,34.00
2022-12-31T16:30:25.704Z,31.45
2022-12-31T16:32:57.951Z,33.42
2022-12-31T16:35:39.256Z,31.60
2022-12-31T16:38:19.367Z,31.58
2022-12-31T16:41:21.031Z,30.08
2022-12-31T16:43:50.396Z,28.13
2022-12-31T16:46:29.958Z,29.27
2022-12-31T16:49:05.083Z,29.98
2022-12-31T16:51:35.968Z,30.67
2022-12-31T16:54:03.751Z,30.33
2022-12-31T16:56:37.159Z,30.85
2022-12-31T16:59:24.261Z,28.52
2022-12-31T17:01:56.044Z,27.98
2022-12-31T17:04:24.697Z,29.17
2022-12-31T17:06:52.074Z,28.85
2022-12-31T17:09:36.721Z,28.77
2022-12-31T17:12:16.634Z,29.60
2022-12-31T17:14:51.142Z,31.05
2022-12-31T17:17:27.815Z,29.45
2022-12-31T17:20:01.420Z,32.35
2022-12-31T17:22:41.622Z,29.30
2022-12-31T17:25:33.279Z,28.88
2022-12-31T17:28:20.592Z,29.63
2022-12-31T17:30:47.884Z,34.15
2022-12-31T17:33:26.956Z,34.88
2022-12-31T17:36:19.389Z,31.85
2022-12-31T17:38:46.624Z,30.38
2022-12-31T17:41:27.289Z,28.67
2022-12-31T17:43:56.954Z,27.85
2022-12-31T17:46:25.773Z,30.63
2022-12-31T17:49:02.754Z,28.45
2022-12-31T17:51:29.877Z,28.63
2022-12-31T17:53:59.916Z,31.58
2022-12-31T17:56:27.177Z,29.48
2022-12-31T17:58:54.883Z,28.65
2022-12-31T18:01:26.908Z,28.05
2022-12-31T18:03:54.134Z,28.95
2022-12-31T18:06:21.491Z,28.17
2022-12-31T18:08:48.883Z,27.08
2022-12-31T18:11:22.230Z,27.30
2022-12-31T18:13:49.772Z,26.30
2022-12-31T18:16:19.754Z,28.38
2022-12-31T18:18:46.952Z,28.98
2022-12-31T18:21:34.808Z,27.10
2022-12-31T18:26:33.118Z,30.85
2022-12-31T18:29:13.566Z,30.27
2022-12-31T18:31:47.320Z,28.10
2022-12-31T18:34:17.916Z,29.23
2022-12-31T18:36:46.026Z,28.70
2022-12-31T18:39:13.615Z,30.35
2022-12-31T18:41:49.659Z,30.52
2022-12-31T18:44:18.166Z,31.05
2022-12-31T18:46:45.313Z,30.45
2022-12-31T18:49:12.462Z,30.00
2022-12-31T18:51:39.626Z,32.80
2022-12-31T18:54:10.580Z,32.33
2022-12-31T18:56:41.835Z,33.85
2022-12-31T18:59:13.693Z,38.67
2022-12-31T19:01:41.745Z,36.30
2022-12-31T19:04:27.188Z,32.90
2022-12-31T19:06:56.100Z,40.80
2022-12-31T19:09:44.508Z,37.83
2022-12-31T19:12:15.057Z,36.00
2022-12-31T19:14:42.365Z,36.75
2022-12-31T19:19:35.601Z,41.53
2022-12-31T19:22:03.143Z,38.78
2022-12-31T19:24:30.419Z,35.88
2022-12-31T19:26:57.615Z,35.58
2022-12-31T19:29:27.687Z,36.40
2022-12-31T19:31:55.331Z,42.17
2022-12-31T19:34:22.548Z,39.45
2022-12-31T19:36:49.688Z,39.70
2022-12-31T19:39:20.741Z,37.58
2022-12-31T19:41:54.712Z,37.80
2022-12-31T19:44:25.531Z,41.92
2022-12-31T19:46:58.580Z,42.25
2022-12-31T19:49:26.272Z,42.25
2022-12-31T19:51:53.398Z,39.58
2022-12-31T19:54:21.646Z,41.80
2022-12-31T19:56:48.818Z,48.88
2022-12-31T19:59:15.982Z,44.87
2022-12-31T20:01:43.170Z,43.70
2022-12-31T20:04:10.403Z,41.80
2022-12-31T20:06:37.466Z,42.73
2022-12-31T20:09:05.894Z,61.90
2022-12-31T20:11:32.967Z,56.85
2022-12-31T20:14:00.142Z,47.40
2022-12-31T20:16:29.674Z,52.13
2022-12-31T20:18:57.274Z,49.00
2022-12-31T20:21:29.054Z,48.00
2022-12-31T20:23:56.541Z,42.78
2022-12-31T20:26:25.427Z,49.78
2022-12-31T20:28:53.413Z,46.55
2022-12-31T20:31:24.845Z,46.20
2022-12-31T20:33:54.340Z,45.65
2022-12-31T20:36:22.073Z,50.37
2022-12-31T20:38:49.505Z,55.03
2022-12-31T20:41:21.381Z,61.47
2022-12-31T20:43:49.416Z,58.05
2022-12-31T20:46:25.664Z,61.43
2022-12-31T20:49:02.361Z,84.80
2022-12-31T20:51:32.713Z,95.67
2022-12-31T20:54:06.109Z,84.83
2022-12-31T20:56:37.772Z,73.53
2022-12-31T20:59:06.021Z,73.53
2022-12-31T21:01:55.518Z,75.28
2022-12-31T21:04:20.511Z,79.90
2022-12-31T21:06:48.117Z,74.87
2022-12-31T21:09:15.416Z,75.10
2022-12-31T21:12:00.977Z,72.53
2022-12-31T21:14:28.358Z,70.53
2022-12-31T21:16:55.460Z,72.77
2022-12-31T21:19:22.688Z,77.50
2022-12-31T21:21:49.877Z,74.73
2022-12-31T21:24:23.325Z,81.27
2022-12-31T21:26:51.490Z,71.63
2022-12-31T21:29:18.595Z,77.33
2022-12-31T21:31:45.735Z,75.20
2022-12-31T21:34:13.011Z,69.43
2022-12-31T21:36:40.130Z,76.47
2022-12-31T21:39:07.292Z,73.10
2022-12-31T21:41:52.569Z,79.27
2022-12-31T21:44:25.555Z,86.90
2022-12-31T21:47:41.284Z,89.33
2022-12-31T21:50:09.176Z,98.07
2022-12-31T21:52:36.261Z,99.72
2022-12-31T21:55:24.723Z,94.67
2022-12-31T21:58:24.692Z,91.50
2022-12-31T22:00:58.483Z,90.43
2022-12-31T22:03:27.542Z,86.63
2022-12-31T22:06:12.210Z,88.23
2022-12-31T22:08:56.649Z,87.67
2022-12-31T22:11:27.632Z,91.60
2022-12-31T22:13:56.333Z,92.73
2022-12-31T22:16:23.949Z,91.33
2022-12-31T22:18:51.229Z,96.00
2022-12-31T22:21:24.346Z,97.57
2022-12-31T22:23:56.721Z,96.27
2022-12-31T22:26:27.169Z,95.63
2022-12-31T22:28:59.433Z,101.53
2022-12-31T22:31:30.271Z,99.60
2022-12-31T22:33:58.759Z,100.40
2022-12-31T22:36:25.992Z,104.87
2022-12-31T22:38:59.628Z,99.87
2022-12-31T22:41:27.925Z,100.80
2022-12-31T22:44:03.751Z,96.47
2022-12-31T22:46:33.597Z,99.33
2022-12-31T22:49:03.342Z,117.20
2022-12-31T22:51:54.809Z,138.17
2022-12-31T22:54:19.547Z,158.20
2022-12-31T22:56:46.747Z,143.87
2022-12-31T22:59:32.709Z,122.63
2022-12-31T23:01:59.823Z,119.28
2022-12-31T23:04:26.989Z,114.73
2022-12-31T23:06:54.235Z,127.57
2022-12-31T23:09:40.625Z,132.90
2022-12-31T23:12:09.419Z,120.40
2022-12-31T23:14:56.172Z,124.50
2022-12-31T23:17:45.973Z,129.40
2022-12-31T23:20:42.682Z,147.77
2022-12-31T23:25:51.320Z,176.43
2022-12-31T23:28:25.709Z,181.43
2022-12-31T23:30:53.201Z,170.20
2022-12-31T23:33:25.682Z,166.17
2022-12-31T23:36:06.820Z,172.37
2022-12-31T23:38:34.274Z,162.47
2022-12-31T23:41:10.789Z,161.43
2022-12-31T23:43:37.914Z,177.43
2022-12-31T23:46:05.166Z,234.90
2022-12-31T23:48:32.265Z,202.87
2022-12-31T23:50:59.401Z,193.10
2022-12-31T23:53:26.604Z,212.00
2022-12-31T23:55:54.124Z,250.97
2022-12-31T23:58:21.932Z,216.07
